sensor_id;sensor_type;location;lat;lon;timestamp;P1;durP1;ratioP1;P2;durP2;ratioP2
25439;SDS011;13365;52.208;5.488;2022-11-15T00:00:45;24.08;;;9.07;;
25439;SDS011;13365;52.208;5.488;2022-11-15T00:03:13;22.98;;;9.60;;
25439;SDS011;13365;52.208;5.488;2022-11-15T00:05:39;23.77;;;8.13;;
25439;SDS011;13365;52.208;5.488;2022-11-15T00:08:05;21.52;;;8.98;;
25439;SDS011;13365;52.208;5.488;2022-11-15T00:10:31;19.27;;;8.13;;
25439;SDS011;13365;52.208;5.488;2022-11-15T00:12:56;19.98;;;8.32;;
25439;SDS011;13365;52.208;5.488;2022-11-15T00:15:22;19.55;;;8.13;;
25439;SDS011;13365;52.208;5.488;2022-11-15T00:17:50;23.00;;;8.85;;
25439;SDS011;13365;52.208;5.488;2022-11-15T00:20:16;28.30;;;10.07;;
25439;SDS011;13365;52.208;5.488;2022-11-15T00:22:42;21.23;;;9.07;;
25439;SDS011;13365;52.208;5.488;2022-11-15T00:25:08;31.98;;;10.45;;
25439;SDS011;13365;52.208;5.488;2022-11-15T00:27:33;23.63;;;9.13;;
25439;SDS011;13365;52.208;5.488;2022-11-15T00:29:59;20.10;;;8.15;;
25439;SDS011;13365;52.208;5.488;2022-11-15T00:32:25;22.15;;;7.63;;
25439;SDS011;13365;52.208;5.488;2022-11-15T00:34:51;21.15;;;9.13;;
25439;SDS011;13365;52.208;5.488;2022-11-15T00:37:16;22.58;;;8.52;;
25439;SDS011;13365;52.208;5.488;2022-11-15T00:39:42;29.92;;;8.20;;
25439;SDS011;13365;52.208;5.488;2022-11-15T00:42:07;27.63;;;9.80;;
25439;SDS011;13365;52.208;5.488;2022-11-15T00:44:33;25.10;;;9.23;;
25439;SDS011;13365;52.208;5.488;2022-11-15T00:46:58;21.55;;;7.90;;
25439;SDS011;13365;52.208;5.488;2022-11-15T00:49:24;30.70;;;9.82;;
25439;SDS011;13365;52.208;5.488;2022-11-15T00:51:49;21.15;;;9.25;;
25439;SDS011;13365;52.208;5.488;2022-11-15T00:54:15;27.75;;;8.15;;
25439;SDS011;13365;52.208;5.488;2022-11-15T00:56:40;26.50;;;10.15;;
25439;SDS011;13365;52.208;5.488;2022-11-15T00:59:06;29.30;;;10.10;;
25439;SDS011;13365;52.208;5.488;2022-11-15T01:01:31;39.13;;;11.63;;
25439;SDS011;13365;52.208;5.488;2022-11-15T01:03:57;34.80;;;10.20;;
25439;SDS011;13365;52.208;5.488;2022-11-15T01:06:22;26.98;;;10.73;;
25439;SDS011;13365;52.208;5.488;2022-11-15T01:08:48;33.00;;;9.85;;
25439;SDS011;13365;52.208;5.488;2022-11-15T01:11:13;27.05;;;10.38;;
25439;SDS011;13365;52.208;5.488;2022-11-15T01:13:39;34.08;;;10.38;;
25439;SDS011;13365;52.208;5.488;2022-11-15T01:16:09;28.50;;;10.10;;
25439;SDS011;13365;52.208;5.488;2022-11-15T01:18:40;33.33;;;10.10;;
25439;SDS011;13365;52.208;5.488;2022-11-15T01:21:13;26.23;;;9.63;;
25439;SDS011;13365;52.208;5.488;2022-11-15T01:23:40;27.20;;;9.63;;
25439;SDS011;13365;52.208;5.488;2022-11-15T01:26:06;28.30;;;9.50;;
25439;SDS011;13365;52.208;5.488;2022-11-15T01:28:36;31.35;;;9.77;;
25439;SDS011;13365;52.208;5.488;2022-11-15T01:31:04;24.08;;;9.43;;
25439;SDS011;13365;52.208;5.488;2022-11-15T01:33:33;25.98;;;8.70;;
25439;SDS011;13365;52.208;5.488;2022-11-15T01:36:03;30.45;;;11.70;;
25439;SDS011;13365;52.208;5.488;2022-11-15T01:38:30;24.98;;;10.02;;
25439;SDS011;13365;52.208;5.488;2022-11-15T01:40:55;29.13;;;9.80;;
25439;SDS011;13365;52.208;5.488;2022-11-15T01:43:28;37.20;;;10.15;;
25439;SDS011;13365;52.208;5.488;2022-11-15T01:46:00;26.45;;;9.75;;
25439;SDS011;13365;52.208;5.488;2022-11-15T01:48:38;26.02;;;9.65;;
25439;SDS011;13365;52.208;5.488;2022-11-15T01:51:04;27.80;;;9.60;;
25439;SDS011;13365;52.208;5.488;2022-11-15T01:53:33;27.95;;;10.43;;
25439;SDS011;13365;52.208;5.488;2022-11-15T01:56:02;25.40;;;10.20;;
25439;SDS011;13365;52.208;5.488;2022-11-15T01:58:30;27.00;;;8.73;;
25439;SDS011;13365;52.208;5.488;2022-11-15T02:00:56;28.02;;;9.73;;
25439;SDS011;13365;52.208;5.488;2022-11-15T02:03:22;24.02;;;9.43;;
25439;SDS011;13365;52.208;5.488;2022-11-15T02:05:52;22.35;;;9.38;;
25439;SDS011;13365;52.208;5.488;2022-11-15T02:08:18;29.50;;;11.40;;
25439;SDS011;13365;52.208;5.488;2022-11-15T02:10:46;30.67;;;10.00;;
25439;SDS011;13365;52.208;5.488;2022-11-15T02:13:13;23.98;;;9.70;;
25439;SDS011;13365;52.208;5.488;2022-11-15T02:15:42;23.20;;;9.63;;
25439;SDS011;13365;52.208;5.488;2022-11-15T02:18:59;26.83;;;10.05;;
25439;SDS011;13365;52.208;5.488;2022-11-15T02:29:55;33.72;;;9.18;;
25439;SDS011;13365;52.208;5.488;2022-11-15T02:32:34;32.25;;;9.10;;
25439;SDS011;13365;52.208;5.488;2022-11-15T02:37:49;25.73;;;9.52;;
25439;SDS011;13365;52.208;5.488;2022-11-15T02:43:00;31.17;;;9.75;;
25439;SDS011;13365;52.208;5.488;2022-11-15T02:46:06;21.73;;;9.75;;
25439;SDS011;13365;52.208;5.488;2022-11-15T02:48:39;22.70;;;9.65;;
25439;SDS011;13365;52.208;5.488;2022-11-15T02:51:06;26.33;;;10.20;;
25439;SDS011;13365;52.208;5.488;2022-11-15T02:53:32;25.85;;;11.40;;
25439;SDS011;13365;52.208;5.488;2022-11-15T02:55:57;24.85;;;9.38;;
25439;SDS011;13365;52.208;5.488;2022-11-15T03:01:21;28.60;;;10.13;;
25439;SDS011;13365;52.208;5.488;2022-11-15T03:06:55;20.30;;;8.98;;
25439;SDS011;13365;52.208;5.488;2022-11-15T03:09:35;18.83;;;8.65;;
25439;SDS011;13365;52.208;5.488;2022-11-15T03:15:00;30.75;;;10.43;;
25439;SDS011;13365;52.208;5.488;2022-11-15T03:17:38;27.45;;;10.43;;
25439;SDS011;13365;52.208;5.488;2022-11-15T03:20:10;26.25;;;9.82;;
25439;SDS011;13365;52.208;5.488;2022-11-15T03:22:39;30.33;;;10.80;;
25439;SDS011;13365;52.208;5.488;2022-11-15T03:25:08;20.58;;;9.10;;
25439;SDS011;13365;52.208;5.488;2022-11-15T03:27:40;22.40;;;9.52;;
25439;SDS011;13365;52.208;5.488;2022-11-15T03:30:11;23.17;;;9.43;;
25439;SDS011;13365;52.208;5.488;2022-11-15T03:32:40;23.88;;;8.95;;
25439;SDS011;13365;52.208;5.488;2022-11-15T03:35:20;20.42;;;9.32;;
25439;SDS011;13365;52.208;5.488;2022-11-15T03:37:52;21.42;;;9.40;;
25439;SDS011;13365;52.208;5.488;2022-11-15T03:40:21;26.15;;;9.18;;
25439;SDS011;13365;52.208;5.488;2022-11-15T03:43:03;20.63;;;8.60;;
25439;SDS011;13365;52.208;5.488;2022-11-15T03:45:41;18.13;;;8.70;;
25439;SDS011;13365;52.208;5.488;2022-11-15T03:48:13;21.00;;;9.90;;
25439;SDS011;13365;52.208;5.488;2022-11-15T03:50:42;19.33;;;8.55;;
25439;SDS011;13365;52.208;5.488;2022-11-15T03:53:09;25.20;;;9.55;;
25439;SDS011;13365;52.208;5.488;2022-11-15T03:55:35;20.75;;;10.88;;
25439;SDS011;13365;52.208;5.488;2022-11-15T03:58:01;22.25;;;9.85;;
25439;SDS011;13365;52.208;5.488;2022-11-15T04:00:27;21.27;;;9.60;;
25439;SDS011;13365;52.208;5.488;2022-11-15T04:02:53;25.55;;;10.02;;
25439;SDS011;13365;52.208;5.488;2022-11-15T04:05:19;20.08;;;9.25;;
25439;SDS011;13365;52.208;5.488;2022-11-15T04:07:45;24.08;;;10.52;;
25439;SDS011;13365;52.208;5.488;2022-11-15T04:10:10;23.77;;;10.05;;
25439;SDS011;13365;52.208;5.488;2022-11-15T04:12:38;24.38;;;10.40;;
25439;SDS011;13365;52.208;5.488;2022-11-15T04:15:07;21.58;;;9.85;;
25439;SDS011;13365;52.208;5.488;2022-11-15T04:17:34;27.65;;;10.77;;
25439;SDS011;13365;52.208;5.488;2022-11-15T04:20:17;18.60;;;9.27;;
25439;SDS011;13365;52.208;5.488;2022-11-15T04:23:06;22.60;;;10.40;;
25439;SDS011;13365;52.208;5.488;2022-11-15T04:25:54;20.33;;;8.60;;
25439;SDS011;13365;52.208;5.488;2022-11-15T04:28:21;18.13;;;10.00;;
25439;SDS011;13365;52.208;5.488;2022-11-15T04:30:47;18.98;;;8.88;;
25439;SDS011;13365;52.208;5.488;2022-11-15T04:33:13;16.65;;;9.32;;
25439;SDS011;13365;52.208;5.488;2022-11-15T04:35:39;19.40;;;9.93;;
25439;SDS011;13365;52.208;5.488;2022-11-15T04:38:05;19.63;;;9.77;;
25439;SDS011;13365;52.208;5.488;2022-11-15T04:40:32;24.10;;;10.00;;
25439;SDS011;13365;52.208;5.488;2022-11-15T04:42:58;25.60;;;10.85;;
25439;SDS011;13365;52.208;5.488;2022-11-15T04:45:23;22.42;;;11.32;;
25439;SDS011;13365;52.208;5.488;2022-11-15T04:47:49;17.83;;;8.88;;
25439;SDS011;13365;52.208;5.488;2022-11-15T04:50:15;19.05;;;9.35;;
25439;SDS011;13365;52.208;5.488;2022-11-15T04:52:50;30.63;;;10.48;;
25439;SDS011;13365;52.208;5.488;2022-11-15T04:55:17;21.15;;;9.88;;
25439;SDS011;13365;52.208;5.488;2022-11-15T04:57:42;20.02;;;9.27;;
25439;SDS011;13365;52.208;5.488;2022-11-15T05:00:09;20.35;;;8.85;;
25439;SDS011;13365;52.208;5.488;2022-11-15T05:02:37;19.50;;;9.95;;
25439;SDS011;13365;52.208;5.488;2022-11-15T05:05:21;17.50;;;9.55;;
25439;SDS011;13365;52.208;5.488;2022-11-15T05:07:48;17.50;;;9.45;;
25439;SDS011;13365;52.208;5.488;2022-11-15T05:10:13;21.25;;;9.65;;
25439;SDS011;13365;52.208;5.488;2022-11-15T05:12:39;21.25;;;10.13;;
25439;SDS011;13365;52.208;5.488;2022-11-15T05:15:05;19.15;;;9.35;;
25439;SDS011;13365;52.208;5.488;2022-11-15T05:17:31;17.63;;;8.90;;
25439;SDS011;13365;52.208;5.488;2022-11-15T05:19:56;20.63;;;8.02;;
25439;SDS011;13365;52.208;5.488;2022-11-15T05:22:22;21.55;;;9.30;;
25439;SDS011;13365;52.208;5.488;2022-11-15T05:24:48;14.85;;;7.82;;
25439;SDS011;13365;52.208;5.488;2022-11-15T05:27:13;17.15;;;8.23;;
25439;SDS011;13365;52.208;5.488;2022-11-15T05:29:39;15.75;;;7.53;;
25439;SDS011;13365;52.208;5.488;2022-11-15T05:32:05;22.00;;;9.07;;
25439;SDS011;13365;52.208;5.488;2022-11-15T05:34:32;18.60;;;7.57;;
25439;SDS011;13365;52.208;5.488;2022-11-15T05:36:58;18.30;;;9.15;;
25439;SDS011;13365;52.208;5.488;2022-11-15T05:39:25;18.13;;;8.25;;
25439;SDS011;13365;52.208;5.488;2022-11-15T05:42:12;18.30;;;8.07;;
25439;SDS011;13365;52.208;5.488;2022-11-15T05:44:39;16.90;;;9.07;;
25439;SDS011;13365;52.208;5.488;2022-11-15T05:47:08;16.42;;;8.45;;
25439;SDS011;13365;52.208;5.488;2022-11-15T05:49:37;20.23;;;8.93;;
25439;SDS011;13365;52.208;5.488;2022-11-15T05:52:05;19.38;;;8.93;;
25439;SDS011;13365;52.208;5.488;2022-11-15T05:54:33;18.83;;;8.65;;
25439;SDS011;13365;52.208;5.488;2022-11-15T05:57:00;21.98;;;8.63;;
25439;SDS011;13365;52.208;5.488;2022-11-15T05:59:28;15.45;;;8.18;;
25439;SDS011;13365;52.208;5.488;2022-11-15T06:01:55;18.75;;;9.20;;
25439;SDS011;13365;52.208;5.488;2022-11-15T06:04:20;18.25;;;8.02;;
25439;SDS011;13365;52.208;5.488;2022-11-15T06:06:46;19.67;;;8.82;;
25439;SDS011;13365;52.208;5.488;2022-11-15T06:09:11;17.23;;;9.25;;
25439;SDS011;13365;52.208;5.488;2022-11-15T06:11:37;17.52;;;8.77;;
25439;SDS011;13365;52.208;5.488;2022-11-15T06:14:02;14.35;;;7.70;;
25439;SDS011;13365;52.208;5.488;2022-11-15T06:16:28;18.08;;;8.65;;
25439;SDS011;13365;52.208;5.488;2022-11-15T06:18:53;16.95;;;8.55;;
25439;SDS011;13365;52.208;5.488;2022-11-15T06:21:19;16.80;;;8.88;;
25439;SDS011;13365;52.208;5.488;2022-11-15T06:23:44;16.48;;;8.68;;
25439;SDS011;13365;52.208;5.488;2022-11-15T06:26:10;16.05;;;8.43;;
25439;SDS011;13365;52.208;5.488;2022-11-15T06:28:36;19.25;;;8.27;;
25439;SDS011;13365;52.208;5.488;2022-11-15T06:31:02;22.90;;;9.77;;
25439;SDS011;13365;52.208;5.488;2022-11-15T06:33:28;21.73;;;9.15;;
25439;SDS011;13365;52.208;5.488;2022-11-15T06:35:53;16.00;;;8.50;;
25439;SDS011;13365;52.208;5.488;2022-11-15T06:38:19;23.05;;;8.40;;
25439;SDS011;13365;52.208;5.488;2022-11-15T06:40:44;17.83;;;9.38;;
25439;SDS011;13365;52.208;5.488;2022-11-15T06:43:10;21.50;;;9.65;;
25439;SDS011;13365;52.208;5.488;2022-11-15T06:45:35;16.15;;;9.18;;
25439;SDS011;13365;52.208;5.488;2022-11-15T06:48:01;17.75;;;8.85;;
25439;SDS011;13365;52.208;5.488;2022-11-15T06:50:26;17.65;;;8.00;;
25439;SDS011;13365;52.208;5.488;2022-11-15T06:52:52;18.80;;;9.55;;
25439;SDS011;13365;52.208;5.488;2022-11-15T06:55:19;17.42;;;8.43;;
25439;SDS011;13365;52.208;5.488;2022-11-15T06:57:48;21.88;;;9.50;;
25439;SDS011;13365;52.208;5.488;2022-11-15T07:00:15;17.98;;;9.60;;
25439;SDS011;13365;52.208;5.488;2022-11-15T07:02:42;15.82;;;8.82;;
25439;SDS011;13365;52.208;5.488;2022-11-15T07:05:07;16.50;;;8.77;;
25439;SDS011;13365;52.208;5.488;2022-11-15T07:07:33;16.63;;;8.43;;
25439;SDS011;13365;52.208;5.488;2022-11-15T07:09:58;20.00;;;9.02;;
25439;SDS011;13365;52.208;5.488;2022-11-15T07:12:24;20.45;;;9.65;;
25439;SDS011;13365;52.208;5.488;2022-11-15T07:14:49;20.08;;;9.27;;
25439;SDS011;13365;52.208;5.488;2022-11-15T07:17:15;23.67;;;9.07;;
25439;SDS011;13365;52.208;5.488;2022-11-15T07:19:41;26.52;;;9.68;;
25439;SDS011;13365;52.208;5.488;2022-11-15T07:22:06;20.85;;;8.95;;
25439;SDS011;13365;52.208;5.488;2022-11-15T07:24:32;20.88;;;7.78;;
25439;SDS011;13365;52.208;5.488;2022-11-15T07:26:57;20.42;;;8.13;;
25439;SDS011;13365;52.208;5.488;2022-11-15T07:29:23;17.05;;;9.10;;
25439;SDS011;13365;52.208;5.488;2022-11-15T07:31:49;23.85;;;8.82;;
25439;SDS011;13365;52.208;5.488;2022-11-15T07:34:15;18.10;;;8.40;;
25439;SDS011;13365;52.208;5.488;2022-11-15T07:36:41;19.58;;;8.65;;
25439;SDS011;13365;52.208;5.488;2022-11-15T07:39:06;13.50;;;7.53;;
25439;SDS011;13365;52.208;5.488;2022-11-15T07:41:31;19.33;;;8.20;;
25439;SDS011;13365;52.208;5.488;2022-11-15T07:43:57;17.67;;;8.70;;
25439;SDS011;13365;52.208;5.488;2022-11-15T07:46:23;24.30;;;9.32;;
25439;SDS011;13365;52.208;5.488;2022-11-15T07:48:48;17.02;;;8.32;;
25439;SDS011;13365;52.208;5.488;2022-11-15T07:51:14;19.05;;;8.50;;
25439;SDS011;13365;52.208;5.488;2022-11-15T07:53:44;15.57;;;7.97;;
25439;SDS011;13365;52.208;5.488;2022-11-15T07:56:10;17.55;;;8.70;;
25439;SDS011;13365;52.208;5.488;2022-11-15T07:58:35;14.77;;;7.95;;
25439;SDS011;13365;52.208;5.488;2022-11-15T08:01:05;14.48;;;7.25;;
25439;SDS011;13365;52.208;5.488;2022-11-15T08:03:32;22.33;;;8.03;;
25439;SDS011;13365;52.208;5.488;2022-11-15T08:05:59;20.23;;;7.57;;
25439;SDS011;13365;52.208;5.488;2022-11-15T08:08:24;15.93;;;7.70;;
25439;SDS011;13365;52.208;5.488;2022-11-15T08:10:50;29.65;;;8.15;;
25439;SDS011;13365;52.208;5.488;2022-11-15T08:13:16;20.95;;;8.48;;
25439;SDS011;13365;52.208;5.488;2022-11-15T08:15:42;19.38;;;7.30;;
25439;SDS011;13365;52.208;5.488;2022-11-15T08:18:10;19.27;;;6.97;;
25439;SDS011;13365;52.208;5.488;2022-11-15T08:20:37;17.92;;;7.68;;
25439;SDS011;13365;52.208;5.488;2022-11-15T08:23:03;17.15;;;8.05;;
25439;SDS011;13365;52.208;5.488;2022-11-15T08:25:30;19.33;;;8.15;;
25439;SDS011;13365;52.208;5.488;2022-11-15T08:27:57;16.48;;;8.13;;
25439;SDS011;13365;52.208;5.488;2022-11-15T08:30:24;14.77;;;7.95;;
25439;SDS011;13365;52.208;5.488;2022-11-15T08:32:51;13.82;;;7.05;;
25439;SDS011;13365;52.208;5.488;2022-11-15T08:35:18;14.48;;;7.53;;
25439;SDS011;13365;52.208;5.488;2022-11-15T08:37:44;13.73;;;8.15;;
25439;SDS011;13365;52.208;5.488;2022-11-15T08:40:10;20.10;;;8.02;;
25439;SDS011;13365;52.208;5.488;2022-11-15T08:42:36;25.67;;;8.57;;
25439;SDS011;13365;52.208;5.488;2022-11-15T08:45:02;29.85;;;7.07;;
25439;SDS011;13365;52.208;5.488;2022-11-15T08:47:28;14.15;;;7.43;;
25439;SDS011;13365;52.208;5.488;2022-11-15T08:49:54;16.50;;;7.82;;
25439;SDS011;13365;52.208;5.488;2022-11-15T08:52:20;12.52;;;6.70;;
25439;SDS011;13365;52.208;5.488;2022-11-15T08:54:46;18.35;;;7.15;;
25439;SDS011;13365;52.208;5.488;2022-11-15T08:57:11;18.15;;;7.20;;
25439;SDS011;13365;52.208;5.488;2022-11-15T08:59:37;18.95;;;7.38;;
25439;SDS011;13365;52.208;5.488;2022-11-15T09:02:03;22.02;;;7.28;;
25439;SDS011;13365;52.208;5.488;2022-11-15T09:04:29;15.80;;;7.18;;
25439;SDS011;13365;52.208;5.488;2022-11-15T09:06:54;12.98;;;6.32;;
25439;SDS011;13365;52.208;5.488;2022-11-15T09:09:20;13.50;;;6.75;;
25439;SDS011;13365;52.208;5.488;2022-11-15T09:11:45;14.30;;;6.63;;
25439;SDS011;13365;52.208;5.488;2022-11-15T09:14:12;16.00;;;6.95;;
25439;SDS011;13365;52.208;5.488;2022-11-15T09:16:38;20.33;;;7.10;;
25439;SDS011;13365;52.208;5.488;2022-11-15T09:19:03;16.45;;;6.00;;
25439;SDS011;13365;52.208;5.488;2022-11-15T09:21:29;16.33;;;6.13;;
25439;SDS011;13365;52.208;5.488;2022-11-15T09:23:55;19.42;;;6.18;;
25439;SDS011;13365;52.208;5.488;2022-11-15T09:26:21;10.43;;;5.60;;
25439;SDS011;13365;52.208;5.488;2022-11-15T09:28:46;15.07;;;6.40;;
25439;SDS011;13365;52.208;5.488;2022-11-15T09:31:12;12.88;;;6.35;;
25439;SDS011;13365;52.208;5.488;2022-11-15T09:33:38;8.98;;;5.50;;
25439;SDS011;13365;52.208;5.488;2022-11-15T09:36:04;11.00;;;5.50;;
25439;SDS011;13365;52.208;5.488;2022-11-15T09:38:32;15.40;;;5.03;;
25439;SDS011;13365;52.208;5.488;2022-11-15T09:43:59;9.50;;;4.70;;
25439;SDS011;13365;52.208;5.488;2022-11-15T09:49:16;11.30;;;5.13;;
25439;SDS011;13365;52.208;5.488;2022-11-15T09:51:43;6.95;;;3.95;;
25439;SDS011;13365;52.208;5.488;2022-11-15T09:54:31;9.50;;;4.55;;
25439;SDS011;13365;52.208;5.488;2022-11-15T09:57:18;7.28;;;4.13;;
25439;SDS011;13365;52.208;5.488;2022-11-15T10:02:30;10.07;;;4.28;;
25439;SDS011;13365;52.208;5.488;2022-11-15T10:05:29;9.18;;;4.57;;
25439;SDS011;13365;52.208;5.488;2022-11-15T10:10:55;7.95;;;4.30;;
25439;SDS011;13365;52.208;5.488;2022-11-15T10:13:23;13.15;;;5.38;;
25439;SDS011;13365;52.208;5.488;2022-11-15T10:16:02;11.60;;;4.93;;
25439;SDS011;13365;52.208;5.488;2022-11-15T10:18:50;7.97;;;4.80;;
25439;SDS011;13365;52.208;5.488;2022-11-15T10:21:34;8.45;;;4.53;;
25439;SDS011;13365;52.208;5.488;2022-11-15T10:24:07;10.02;;;4.63;;
25439;SDS011;13365;52.208;5.488;2022-11-15T10:26:35;11.93;;;4.68;;
25439;SDS011;13365;52.208;5.488;2022-11-15T10:29:01;8.30;;;3.75;;
25439;SDS011;13365;52.208;5.488;2022-11-15T10:31:28;7.32;;;4.15;;
25439;SDS011;13365;52.208;5.488;2022-11-15T10:34:36;6.82;;;4.15;;
25439;SDS011;13365;52.208;5.488;2022-11-15T10:36:46;7.60;;;3.25;;
25439;SDS011;13365;52.208;5.488;2022-11-15T10:39:23;5.95;;;2.72;;
25439;SDS011;13365;52.208;5.488;2022-11-15T10:41:48;3.80;;;2.47;;
25439;SDS011;13365;52.208;5.488;2022-11-15T10:44:19;4.25;;;2.42;;
25439;SDS011;13365;52.208;5.488;2022-11-15T10:49:29;3.17;;;2.40;;
25439;SDS011;13365;52.208;5.488;2022-11-15T10:51:57;6.00;;;2.17;;
25439;SDS011;13365;52.208;5.488;2022-11-15T10:54:29;9.35;;;1.73;;
25439;SDS011;13365;52.208;5.488;2022-11-15T10:57:04;2.90;;;1.95;;
25439;SDS011;13365;52.208;5.488;2022-11-15T10:59:37;5.75;;;2.75;;
25439;SDS011;13365;52.208;5.488;2022-11-15T11:02:20;3.63;;;2.05;;
25439;SDS011;13365;52.208;5.488;2022-11-15T11:05:25;3.90;;;1.85;;
25439;SDS011;13365;52.208;5.488;2022-11-15T11:08:25;2.97;;;1.75;;
25439;SDS011;13365;52.208;5.488;2022-11-15T11:10:53;8.57;;;1.90;;
25439;SDS011;13365;52.208;5.488;2022-11-15T11:13:27;6.00;;;1.50;;
25439;SDS011;13365;52.208;5.488;2022-11-15T11:16:41;4.93;;;1.42;;
25439;SDS011;13365;52.208;5.488;2022-11-15T11:24:44;7.95;;;1.23;;
25439;SDS011;13365;52.208;5.488;2022-11-15T11:37:49;2.22;;;1.40;;
25439;SDS011;13365;52.208;5.488;2022-11-15T11:40:29;3.78;;;1.67;;
25439;SDS011;13365;52.208;5.488;2022-11-15T11:43:19;2.63;;;1.38;;
25439;SDS011;13365;52.208;5.488;2022-11-15T11:49:03;2.42;;;1.00;;
25439;SDS011;13365;52.208;5.488;2022-11-15T11:51:37;9.05;;;2.20;;
25439;SDS011;13365;52.208;5.488;2022-11-15T11:54:19;7.95;;;2.13;;
25439;SDS011;13365;52.208;5.488;2022-11-15T11:57:01;1.98;;;1.20;;
25439;SDS011;13365;52.208;5.488;2022-11-15T11:59:36;6.13;;;1.40;;
25439;SDS011;13365;52.208;5.488;2022-11-15T12:05:18;2.08;;;1.30;;
25439;SDS011;13365;52.208;5.488;2022-11-15T12:07:52;2.92;;;1.05;;
25439;SDS011;13365;52.208;5.488;2022-11-15T12:10:24;5.82;;;1.35;;
25439;SDS011;13365;52.208;5.488;2022-11-15T12:15:26;1.88;;;1.33;;
25439;SDS011;13365;52.208;5.488;2022-11-15T12:17:56;5.50;;;1.67;;
25439;SDS011;13365;52.208;5.488;2022-11-15T12:20:30;1.85;;;0.98;;
25439;SDS011;13365;52.208;5.488;2022-11-15T12:23:04;5.15;;;1.73;;
25439;SDS011;13365;52.208;5.488;2022-11-15T12:25:55;2.88;;;1.13;;
25439;SDS011;13365;52.208;5.488;2022-11-15T12:28:34;1.70;;;1.02;;
25439;SDS011;13365;52.208;5.488;2022-11-15T12:31:24;6.55;;;1.20;;
25439;SDS011;13365;52.208;5.488;2022-11-15T12:36:43;3.10;;;1.27;;
25439;SDS011;13365;52.208;5.488;2022-11-15T12:39:10;5.35;;;1.08;;
25439;SDS011;13365;52.208;5.488;2022-11-15T12:41:41;12.80;;;1.23;;
25439;SDS011;13365;52.208;5.488;2022-11-15T12:44:11;7.28;;;0.80;;
25439;SDS011;13365;52.208;5.488;2022-11-15T12:59:50;4.47;;;0.90;;
25439;SDS011;13365;52.208;5.488;2022-11-15T13:28:39;1.47;;;0.77;;
25439;SDS011;13365;52.208;5.488;2022-11-15T13:30:58;3.42;;;0.85;;
25439;SDS011;13365;52.208;5.488;2022-11-15T13:33:33;1.98;;;0.80;;
25439;SDS011;13365;52.208;5.488;2022-11-15T13:36:05;2.15;;;0.90;;
25439;SDS011;13365;52.208;5.488;2022-11-15T13:38:34;8.18;;;0.70;;
25439;SDS011;13365;52.208;5.488;2022-11-15T13:41:22;4.03;;;1.38;;
25439;SDS011;13365;52.208;5.488;2022-11-15T13:43:50;4.78;;;1.35;;
25439;SDS011;13365;52.208;5.488;2022-11-15T13:46:18;2.08;;;0.68;;
25439;SDS011;13365;52.208;5.488;2022-11-15T13:48:50;2.75;;;1.00;;
25439;SDS011;13365;52.208;5.488;2022-11-15T13:53:50;1.35;;;0.80;;
25439;SDS011;13365;52.208;5.488;2022-11-15T13:56:25;10.23;;;1.35;;
25439;SDS011;13365;52.208;5.488;2022-11-15T13:58:53;1.30;;;0.73;;
25439;SDS011;13365;52.208;5.488;2022-11-15T14:01:19;2.30;;;1.00;;
25439;SDS011;13365;52.208;5.488;2022-11-15T14:03:48;1.27;;;0.68;;
25439;SDS011;13365;52.208;5.488;2022-11-15T14:06:18;3.33;;;0.80;;
25439;SDS011;13365;52.208;5.488;2022-11-15T14:11:29;3.58;;;0.65;;
25439;SDS011;13365;52.208;5.488;2022-11-15T14:14:02;8.18;;;0.90;;
25439;SDS011;13365;52.208;5.488;2022-11-15T14:16:38;2.25;;;0.60;;
25439;SDS011;13365;52.208;5.488;2022-11-15T14:19:06;1.20;;;0.52;;
25439;SDS011;13365;52.208;5.488;2022-11-15T14:27:40;7.63;;;0.93;;
25439;SDS011;13365;52.208;5.488;2022-11-15T14:30:12;2.85;;;1.05;;
25439;SDS011;13365;52.208;5.488;2022-11-15T14:32:45;5.38;;;1.48;;
25439;SDS011;13365;52.208;5.488;2022-11-15T14:35:16;30.25;;;9.23;;
25439;SDS011;13365;52.208;5.488;2022-11-15T14:37:46;35.92;;;14.68;;
25439;SDS011;13365;52.208;5.488;2022-11-15T14:40:14;19.35;;;8.88;;
25439;SDS011;13365;52.208;5.488;2022-11-15T14:45:14;4.82;;;2.22;;
25439;SDS011;13365;52.208;5.488;2022-11-15T14:50:11;6.95;;;1.73;;
25439;SDS011;13365;52.208;5.488;2022-11-15T14:52:41;0.95;;;0.77;;
25439;SDS011;13365;52.208;5.488;2022-11-15T14:55:21;4.78;;;1.02;;
25439;SDS011;13365;52.208;5.488;2022-11-15T14:57:57;2.83;;;1.05;;
25439;SDS011;13365;52.208;5.488;2022-11-15T15:00:23;0.80;;;0.65;;
25439;SDS011;13365;52.208;5.488;2022-11-15T15:02:50;4.63;;;1.42;;
25439;SDS011;13365;52.208;5.488;2022-11-15T15:05:19;2.33;;;0.80;;
25439;SDS011;13365;52.208;5.488;2022-11-15T15:07:47;2.95;;;0.60;;
25439;SDS011;13365;52.208;5.488;2022-11-15T15:10:13;6.13;;;1.23;;
25439;SDS011;13365;52.208;5.488;2022-11-15T15:12:39;1.67;;;0.60;;
25439;SDS011;13365;52.208;5.488;2022-11-15T15:15:06;2.13;;;0.98;;
25439;SDS011;13365;52.208;5.488;2022-11-15T15:20:02;4.43;;;0.70;;
25439;SDS011;13365;52.208;5.488;2022-11-15T15:22:28;3.72;;;0.43;;
25439;SDS011;13365;52.208;5.488;2022-11-15T15:24:54;1.40;;;0.55;;
25439;SDS011;13365;52.208;5.488;2022-11-15T15:27:20;2.65;;;0.80;;
25439;SDS011;13365;52.208;5.488;2022-11-15T15:29:46;1.30;;;0.65;;
25439;SDS011;13365;52.208;5.488;2022-11-15T15:32:11;2.78;;;0.73;;
25439;SDS011;13365;52.208;5.488;2022-11-15T15:34:38;0.40;;;0.40;;
25439;SDS011;13365;52.208;5.488;2022-11-15T15:39:52;2.78;;;0.85;;
25439;SDS011;13365;52.208;5.488;2022-11-15T15:42:20;2.28;;;0.63;;
25439;SDS011;13365;52.208;5.488;2022-11-15T15:44:46;1.52;;;0.55;;
25439;SDS011;13365;52.208;5.488;2022-11-15T15:47:22;3.78;;;0.88;;
25439;SDS011;13365;52.208;5.488;2022-11-15T15:49:49;2.92;;;0.57;;
25439;SDS011;13365;52.208;5.488;2022-11-15T15:52:15;3.50;;;0.88;;
25439;SDS011;13365;52.208;5.488;2022-11-15T15:54:41;1.42;;;0.57;;
25439;SDS011;13365;52.208;5.488;2022-11-15T15:57:07;2.33;;;0.70;;
25439;SDS011;13365;52.208;5.488;2022-11-15T15:59:36;3.15;;;1.05;;
25439;SDS011;13365;52.208;5.488;2022-11-15T16:02:01;4.18;;;0.88;;
25439;SDS011;13365;52.208;5.488;2022-11-15T16:04:27;3.55;;;1.25;;
25439;SDS011;13365;52.208;5.488;2022-11-15T16:06:57;1.10;;;0.70;;
25439;SDS011;13365;52.208;5.488;2022-11-15T16:09:26;2.70;;;0.70;;
25439;SDS011;13365;52.208;5.488;2022-11-15T16:12:10;1.13;;;0.50;;
25439;SDS011;13365;52.208;5.488;2022-11-15T16:14:36;4.22;;;0.70;;
25439;SDS011;13365;52.208;5.488;2022-11-15T16:17:01;3.08;;;0.60;;
25439;SDS011;13365;52.208;5.488;2022-11-15T16:19:27;1.42;;;0.88;;
25439;SDS011;13365;52.208;5.488;2022-11-15T16:21:53;3.10;;;0.85;;
25439;SDS011;13365;52.208;5.488;2022-11-15T16:24:19;3.38;;;0.75;;
25439;SDS011;13365;52.208;5.488;2022-11-15T16:26:45;3.78;;;0.70;;
25439;SDS011;13365;52.208;5.488;2022-11-15T16:29:13;4.35;;;0.85;;
25439;SDS011;13365;52.208;5.488;2022-11-15T16:31:38;1.55;;;0.52;;
25439;SDS011;13365;52.208;5.488;2022-11-15T16:34:04;2.28;;;0.40;;
25439;SDS011;13365;52.208;5.488;2022-11-15T16:36:32;4.03;;;0.68;;
25439;SDS011;13365;52.208;5.488;2022-11-15T16:38:59;0.75;;;0.32;;
25439;SDS011;13365;52.208;5.488;2022-11-15T16:41:25;2.90;;;0.82;;
25439;SDS011;13365;52.208;5.488;2022-11-15T16:43:51;1.67;;;0.80;;
25439;SDS011;13365;52.208;5.488;2022-11-15T16:48:45;2.22;;;0.63;;
25439;SDS011;13365;52.208;5.488;2022-11-15T16:51:12;7.35;;;0.70;;
25439;SDS011;13365;52.208;5.488;2022-11-15T16:53:38;2.28;;;0.65;;
25439;SDS011;13365;52.208;5.488;2022-11-15T16:56:12;2.95;;;0.73;;
25439;SDS011;13365;52.208;5.488;2022-11-15T16:58:52;1.58;;;0.52;;